Time;durP1;ratioP1;P1;durP2;ratioP2;P2;SDS_P1;SDS_P2;PMS_P1;PMS_P2;Temp;Humidity;BMP_temperature;BMP_pressure;BME280_temperature;BME280_humidity;BME280_pressure;Samples;Min_cycle;Max_cycle;Signal;HPM_P1;HPM_P2
2021/01/02 00:01:37;;;;;;;30.87;22.70;;;4.70;99.90;;;;;;5045254;28;20486;-90
2021/01/02 00:04:20;;;;;;;29.27;21.93;;;4.70;99.90;;;;;;5056443;28;20459;-90
2021/01/02 00:07:21;;;;;;;29.67;22.73;;;4.70;99.90;;;;;;5056621;28;20440;-93
2021/01/02 00:09:54;;;;;;;35.57;22.30;;;4.60;99.90;;;;;;5043595;28;20444;-92
2021/01/02 00:12:43;;;;;;;32.70;23.13;;;4.70;99.90;;;;;;5047774;28;20451;-88
2021/01/02 00:15:17;;;;;;;30.40;21.43;;;4.70;99.90;;;;;;5050020;28;20459;-90
2021/01/02 00:18:04;;;;;;;36.20;23.10;;;4.60;99.90;;;;;;5041162;28;20478;-87
2021/01/02 00:20:54;;;;;;;34.33;24.13;;;4.70;99.90;;;;;;5051260;28;20458;-88
2021/01/02 00:23:34;;;;;;;33.30;23.37;;;4.60;99.90;;;;;;5054383;28;20449;-88
2021/01/02 00:26:13;;;;;;;40.17;25.33;;;4.40;99.90;;;;;;5054616;28;20481;-91
2021/01/02 00:28:42;;;;;;;31.87;22.70;;;4.60;99.90;;;;;;5051814;28;20506;-89
2021/01/02 00:31:58;;;;;;;43.13;23.00;;;4.60;99.90;;;;;;5053338;28;20451;-87
2021/01/02 00:35:02;;;;;;;35.00;24.50;;;4.50;99.90;;;;;;5044836;28;20471;-88
2021/01/02 00:37:34;;;;;;;33.10;24.07;;;4.50;99.90;;;;;;5038152;28;20444;-93
2021/01/02 00:40:16;;;;;;;33.40;23.10;;;4.40;99.90;;;;;;5039424;28;20489;-90
2021/01/02 00:42:44;;;;;;;34.00;24.27;;;4.50;99.90;;;;;;5037916;28;20563;-90
2021/01/02 00:45:12;;;;;;;38.30;24.40;;;4.40;99.90;;;;;;5027864;28;20583;-90
2021/01/02 00:47:40;;;;;;;36.03;23.33;;;4.40;99.90;;;;;;5020697;28;20514;-91
2021/01/02 00:50:09;;;;;;;34.37;26.83;;;4.50;99.90;;;;;;5037929;28;20448;-89
2021/01/02 00:53:02;;;;;;;41.70;26.13;;;4.40;99.90;;;;;;5038837;28;20919;-89
2021/01/02 00:55:55;;;;;;;40.53;25.67;;;4.40;99.90;;;;;;5028159;28;20458;-90
2021/01/02 00:58:41;;;;;;;34.97;24.73;;;4.30;99.90;;;;;;5030995;28;20483;-88
2021/01/02 01:01:12;;;;;;;32.27;23.23;;;4.40;99.90;;;;;;5036266;28;20494;-89
2021/01/02 01:04:06;;;;;;;34.33;26.33;;;4.30;99.90;;;;;;5039888;28;20451;-89
2021/01/02 01:06:38;;;;;;;33.57;23.63;;;4.20;99.90;;;;;;5032343;28;20971;-88
2021/01/02 01:09:07;;;;;;;36.27;25.57;;;4.20;99.90;;;;;;5028257;28;20453;-89
2021/01/02 01:11:36;;;;;;;38.83;27.13;;;4.10;99.90;;;;;;5030088;28;20439;-90
2021/01/02 01:14:04;;;;;;;38.60;26.63;;;4.20;99.90;;;;;;5037325;28;20546;-89
2021/01/02 01:16:43;;;;;;;33.30;25.27;;;4.10;99.90;;;;;;5033328;28;20452;-91
2021/01/02 01:19:15;;;;;;;42.93;28.30;;;4.10;99.90;;;;;;5034620;28;20837;-90
2021/01/02 01:21:45;;;;;;;37.63;27.23;;;4.10;99.90;;;;;;5039885;28;20514;-90
2021/01/02 01:24:19;;;;;;;33.13;24.63;;;4.10;99.90;;;;;;5041074;28;20982;-90
2021/01/02 01:27:05;;;;;;;38.93;27.07;;;4.10;99.90;;;;;;5040923;28;20552;-90
2021/01/02 01:29:41;;;;;;;39.67;27.60;;;4.10;99.90;;;;;;5038696;28;20470;-93
2021/01/02 01:32:08;;;;;;;35.83;25.67;;;4.10;99.90;;;;;;5039869;28;20484;-92
2021/01/02 01:34:35;;;;;;;36.47;25.43;;;4.20;99.90;;;;;;5037468;28;20442;-90
2021/01/02 01:37:04;;;;;;;42.33;28.33;;;4.10;99.90;;;;;;5044224;28;20452;-90
2021/01/02 01:39:33;;;;;;;38.43;26.27;;;4.10;99.90;;;;;;5038980;28;20456;-93
2021/01/02 01:42:03;;;;;;;41.70;30.07;;;4.10;99.90;;;;;;5029238;28;20511;-90
2021/01/02 01:44:54;;;;;;;37.00;25.60;;;4.10;99.90;;;;;;5031841;28;20459;-93
2021/01/02 01:47:24;;;;;;;38.60;27.93;;;4.10;99.90;;;;;;5020002;28;20633;-91
2021/01/02 01:50:30;;;;;;;34.37;24.73;;;4.00;99.90;;;;;;5035316;28;20486;-90
2021/01/02 01:53:57;;;;;;;37.37;27.63;;;4.00;99.90;;;;;;5039735;28;20458;-89
2021/01/02 01:56:31;;;;;;;37.50;26.30;;;4.00;99.90;;;;;;5027388;28;20522;-89
2021/01/02 01:59:23;;;;;;;39.80;27.17;;;4.00;99.90;;;;;;5020738;28;20461;-90
2021/01/02 02:01:52;;;;;;;40.10;28.87;;;3.90;99.90;;;;;;5019771;28;20485;-89
2021/01/02 02:05:00;;;;;;;38.37;24.33;;;3.90;99.90;;;;;;5030309;28;20479;-88
2021/01/02 02:07:46;;;;;;;36.73;27.80;;;4.00;99.90;;;;;;5027158;28;20471;-89
2021/01/02 02:10:15;;;;;;;36.67;24.60;;;4.00;99.90;;;;;;5025065;28;20462;-89
2021/01/02 02:12:52;;;;;;;31.80;24.60;;;4.10;99.90;;;;;;5034102;28;20440;-89
2021/01/02 02:15:21;;;;;;;39.80;26.10;;;4.00;99.90;;;;;;5035814;28;20493;-89
2021/01/02 02:17:51;;;;;;;33.33;23.93;;;4.10;99.90;;;;;;5034349;28;20452;-88
2021/01/02 02:20:20;;;;;;;33.90;23.83;;;4.10;99.90;;;;;;5034400;28;20447;-88
2021/01/02 02:22:46;;;;;;;35.93;26.07;;;4.20;99.90;;;;;;5035300;28;20488;-89
2021/01/02 02:25:14;;;;;;;36.33;25.67;;;4.10;99.90;;;;;;5051487;28;20445;-89
2021/01/02 02:27:43;;;;;;;36.13;25.27;;;4.10;99.90;;;;;;5053453;28;20656;-89
2021/01/02 02:30:15;;;;;;;38.63;25.40;;;4.10;99.90;;;;;;5044471;28;20500;-89
2021/01/02 02:32:44;;;;;;;34.07;24.93;;;4.10;99.90;;;;;;5034916;28;20454;-89
2021/01/02 02:35:14;;;;;;;33.80;23.00;;;4.20;99.90;;;;;;5053825;28;20462;-87
2021/01/02 02:37:44;;;;;;;36.27;24.70;;;4.10;99.90;;;;;;5051276;28;20522;-89
2021/01/02 02:40:12;;;;;;;37.03;23.40;;;4.20;99.90;;;;;;5053989;28;20437;-88
2021/01/02 02:42:44;;;;;;;33.87;21.47;;;4.20;99.90;;;;;;5053295;28;20441;-90
2021/01/02 02:45:16;;;;;;;34.93;22.07;;;4.30;99.90;;;;;;5053117;28;20420;-87
2021/01/02 02:47:44;;;;;;;27.97;21.57;;;4.30;99.90;;;;;;5053443;28;20470;-89
2021/01/02 02:50:21;;;;;;;37.10;25.07;;;4.30;99.90;;;;;;5053805;28;20493;-89
2021/01/02 02:52:55;;;;;;;36.07;25.57;;;3.90;99.90;;;;;;5055049;28;20462;-88
2021/01/02 02:55:21;;;;;;;37.40;22.57;;;4.00;99.90;;;;;;5053645;28;20457;-89
2021/01/02 02:57:49;;;;;;;31.27;20.40;;;4.00;99.90;;;;;;5033478;28;20440;-89
2021/01/02 03:00:18;;;;;;;27.67;20.90;;;4.10;99.90;;;;;;5031923;28;20516;-89
2021/01/02 03:02:48;;;;;;;34.97;22.90;;;4.10;99.90;;;;;;5031359;28;20443;-89
2021/01/02 03:05:18;;;;;;;30.10;20.63;;;4.10;99.90;;;;;;5029909;28;20461;-89
2021/01/02 03:07:46;;;;;;;32.17;21.40;;;4.10;99.90;;;;;;5041778;28;20859;-88
2021/01/02 03:10:14;;;;;;;30.40;20.77;;;4.10;99.90;;;;;;5029833;28;20462;-89
2021/01/02 03:12:42;;;;;;;30.00;20.17;;;4.20;99.90;;;;;;5019097;28;20462;-88
2021/01/02 03:15:11;;;;;;;24.03;17.30;;;4.10;99.90;;;;;;5037637;28;20984;-89
2021/01/02 03:17:39;;;;;;;24.53;18.00;;;4.20;99.90;;;;;;5038195;28;20491;-88
2021/01/02 03:20:06;;;;;;;25.80;18.50;;;4.20;99.90;;;;;;5037590;28;20445;-89
2021/01/02 03:22:33;;;;;;;25.53;18.03;;;4.20;99.90;;;;;;5032353;28;20500;-93
2021/01/02 03:25:00;;;;;;;23.00;16.37;;;4.30;99.90;;;;;;5037536;28;20911;-88
2021/01/02 03:27:26;;;;;;;22.60;16.60;;;4.20;99.90;;;;;;5037627;28;20498;-89
2021/01/02 03:29:53;;;;;;;24.43;18.37;;;4.20;99.90;;;;;;5037810;28;21010;-88
2021/01/02 03:32:19;;;;;;;21.70;17.10;;;4.20;99.90;;;;;;5038207;28;20443;-89
2021/01/02 03:34:47;;;;;;;21.60;16.27;;;4.30;99.90;;;;;;5037619;28;21052;-88
2021/01/02 03:37:13;;;;;;;18.93;13.77;;;4.30;99.90;;;;;;5037720;28;20469;-88
2021/01/02 03:39:39;;;;;;;21.30;14.40;;;4.20;99.90;;;;;;5038015;28;20434;-89
2021/01/02 03:42:08;;;;;;;25.60;16.23;;;4.20;99.90;;;;;;5039285;28;20459;-88
2021/01/02 03:44:35;;;;;;;20.50;13.90;;;4.20;99.90;;;;;;5037303;28;20462;-88
2021/01/02 03:47:07;;;;;;;21.43;14.30;;;4.20;99.90;;;;;;5038086;28;20475;-88
2021/01/02 03:49:37;;;;;;;22.90;15.80;;;4.20;99.90;;;;;;5039852;28;20835;-88
2021/01/02 03:52:05;;;;;;;21.70;15.70;;;4.20;99.90;;;;;;5038396;28;20473;-89
2021/01/02 03:54:32;;;;;;;18.67;15.10;;;4.00;99.90;;;;;;5037336;28;20448;-88
2021/01/02 03:56:59;;;;;;;28.60;15.80;;;4.00;99.90;;;;;;5036837;28;20489;-89
2021/01/02 03:59:25;;;;;;;23.07;15.50;;;4.00;99.90;;;;;;5037486;28;20558;-88
2021/01/02 04:01:54;;;;;;;24.43;16.47;;;4.00;99.90;;;;;;5037071;28;20474;-89
2021/01/02 04:04:21;;;;;;;23.77;17.40;;;3.90;99.90;;;;;;5018107;28;20534;-89
2021/01/02 04:06:47;;;;;;;22.10;16.60;;;3.90;99.90;;;;;;5036599;28;20463;-89
2021/01/02 04:09:14;;;;;;;24.27;17.83;;;3.90;99.90;;;;;;5037373;28;20451;-88
2021/01/02 04:11:42;;;;;;;27.07;20.20;;;3.90;99.90;;;;;;5035487;28;20954;-89
2021/01/02 04:14:09;;;;;;;24.47;17.53;;;3.80;99.90;;;;;;5036707;28;20466;-89
2021/01/02 04:16:36;;;;;;;24.30;17.60;;;3.90;99.90;;;;;;5036695;28;20448;-90
2021/01/02 04:19:03;;;;;;;22.30;16.40;;;3.80;99.90;;;;;;5036520;28;20445;-89
2021/01/02 04:21:30;;;;;;;25.33;16.57;;;3.90;99.90;;;;;;5046916;28;20465;-88
2021/01/02 04:23:56;;;;;;;23.53;18.23;;;3.90;99.90;;;;;;5045363;28;20512;-90
2021/01/02 04:26:25;;;;;;;26.47;17.93;;;3.80;99.90;;;;;;5049967;28;20464;-88
2021/01/02 04:28:52;;;;;;;29.07;18.63;;;3.80;99.90;;;;;;5046594;28;20587;-88
2021/01/02 04:31:19;;;;;;;25.47;18.07;;;3.80;99.90;;;;;;5036842;28;20549;-90
2021/01/02 04:33:46;;;;;;;24.53;17.90;;;3.90;99.90;;;;;;5039629;28;20544;-89
2021/01/02 04:36:13;;;;;;;26.00;18.63;;;3.90;99.90;;;;;;5037812;28;20925;-90
2021/01/02 04:38:40;;;;;;;25.47;17.77;;;3.80;99.90;;;;;;5036478;28;20447;-88
2021/01/02 04:41:06;;;;;;;25.20;18.80;;;3.80;99.90;;;;;;5026168;28;20450;-90
2021/01/02 04:43:34;;;;;;;33.27;21.27;;;3.80;99.90;;;;;;5016452;28;20481;-90
2021/01/02 04:46:02;;;;;;;27.50;18.10;;;3.70;99.90;;;;;;5016093;28;20541;-89
2021/01/02 04:48:28;;;;;;;28.27;17.83;;;3.80;99.90;;;;;;5016459;28;21038;-90
2021/01/02 04:50:55;;;;;;;28.87;18.87;;;3.90;99.90;;;;;;5017740;28;20471;-89
2021/01/02 04:53:22;;;;;;;27.47;19.60;;;3.90;99.90;;;;;;5037287;28;20471;-89
2021/01/02 04:55:52;;;;;;;26.60;16.97;;;3.90;99.90;;;;;;5048907;28;20460;-89
2021/01/02 04:58:19;;;;;;;25.70;16.97;;;4.00;99.90;;;;;;5026624;28;20514;-89
2021/01/02 05:00:48;;;;;;;27.10;20.30;;;4.00;99.90;;;;;;5015973;28;20534;-89
2021/01/02 05:03:15;;;;;;;31.93;20.10;;;3.90;99.90;;;;;;5017171;28;20457;-89
2021/01/02 05:05:41;;;;;;;29.50;20.10;;;3.90;99.90;;;;;;5016290;28;20929;-89
2021/01/02 05:08:08;;;;;;;27.00;17.57;;;3.90;99.90;;;;;;5027624;28;20548;-88
2021/01/02 05:10:34;;;;;;;28.67;18.60;;;3.90;99.90;;;;;;5022921;28;20454;-90
2021/01/02 05:13:10;;;;;;;23.20;17.77;;;4.00;99.90;;;;;;5032771;28;20462;-90
2021/01/02 05:15:37;;;;;;;28.13;19.07;;;4.10;99.90;;;;;;5029440;28;20536;-88
2021/01/02 05:18:05;;;;;;;27.53;19.20;;;4.10;99.90;;;;;;5015400;28;20505;-89
2021/01/02 05:20:32;;;;;;;25.17;18.40;;;4.10;99.90;;;;;;5028593;28;20503;-88
2021/01/02 05:23:08;;;;;;;27.93;18.90;;;3.90;99.90;;;;;;5034671;28;20482;-88
2021/01/02 05:25:35;;;;;;;32.77;20.27;;;3.90;99.90;;;;;;5034643;28;20429;-88
2021/01/02 05:28:02;;;;;;;25.93;17.80;;;3.80;99.90;;;;;;5034398;28;20481;-89
2021/01/02 05:30:30;;;;;;;31.30;20.73;;;3.90;99.90;;;;;;5035038;28;20562;-89
2021/01/02 05:33:10;;;;;;;26.00;17.20;;;3.90;99.90;;;;;;5036047;28;20481;-91
2021/01/02 05:35:42;;;;;;;24.77;18.63;;;3.90;99.90;;;;;;5017510;28;20489;-91
2021/01/02 05:38:17;;;;;;;27.20;17.60;;;3.90;99.90;;;;;;5020599;28;20454;-89
2021/01/02 05:40:47;;;;;;;27.43;18.63;;;3.90;99.90;;;;;;5034791;28;20460;-91
2021/01/02 05:43:15;;;;;;;27.10;18.60;;;3.90;99.90;;;;;;5018835;28;20468;-90
2021/01/02 05:45:42;;;;;;;24.23;16.60;;;3.80;99.90;;;;;;5016527;28;20943;-88
2021/01/02 05:48:15;;;;;;;24.87;16.63;;;3.90;99.90;;;;;;5016142;28;20578;-88
2021/01/02 05:50:43;;;;;;;24.33;17.90;;;3.90;99.90;;;;;;5015983;28;20518;-87
2021/01/02 05:53:29;;;;;;;24.17;16.20;;;4.00;99.90;;;;;;5035484;28;20933;-89
2021/01/02 05:56:15;;;;;;;29.40;17.53;;;4.00;99.90;;;;;;5021602;28;20593;-88
2021/01/02 05:58:42;;;;;;;25.87;18.07;;;3.90;99.90;;;;;;5019526;28;20461;-89
2021/01/02 06:01:14;;;;;;;24.77;16.00;;;3.80;99.90;;;;;;5033905;28;20516;-86
2021/01/02 06:03:43;;;;;;;23.43;16.73;;;3.90;99.90;;;;;;5032889;28;20448;-89
2021/01/02 06:06:11;;;;;;;24.63;16.77;;;3.80;99.90;;;;;;5032853;28;20922;-87
2021/01/02 06:08:42;;;;;;;24.07;16.97;;;3.90;99.90;;;;;;5034092;28;20480;-87
2021/01/02 06:11:12;;;;;;;24.67;18.17;;;3.90;99.90;;;;;;5033644;28;20487;-87
2021/01/02 06:13:46;;;;;;;22.23;17.50;;;3.80;99.90;;;;;;5022802;28;20468;-87
2021/01/02 06:16:13;;;;;;;25.73;18.70;;;3.80;99.90;;;;;;5018370;28;20472;-86
2021/01/02 06:18:44;;;;;;;20.73;14.93;;;3.80;99.90;;;;;;5025707;28;20525;-90
2021/01/02 06:21:12;;;;;;;23.43;15.77;;;3.90;99.90;;;;;;5025919;28;20449;-91
2021/01/02 06:23:41;;;;;;;22.50;15.20;;;4.00;99.90;;;;;;5031442;28;20535;-91
2021/01/02 06:26:09;;;;;;;27.27;17.43;;;4.00;99.90;;;;;;5034789;28;21038;-90
2021/01/02 06:28:37;;;;;;;25.20;16.97;;;4.00;99.90;;;;;;5029591;28;20964;-91
2021/01/02 06:31:06;;;;;;;21.93;16.37;;;3.90;99.90;;;;;;5029249;28;20441;-91
2021/01/02 06:33:33;;;;;;;22.47;15.27;;;3.90;99.90;;;;;;5033852;28;20907;-91
2021/01/02 06:36:03;;;;;;;26.00;16.23;;;3.90;99.90;;;;;;5038317;28;20433;-91
2021/01/02 06:38:30;;;;;;;23.77;17.23;;;3.90;99.90;;;;;;5040314;28;20460;-92
2021/01/02 06:40:58;;;;;;;26.30;17.10;;;4.00;99.90;;;;;;5053495;28;20477;-90
2021/01/02 06:43:36;;;;;;;23.98;18.00;;;4.00;99.90;;;;;;5056910;28;20451;-86
2021/01/02 06:46:03;;;;;;;23.20;16.00;;;4.00;99.90;;;;;;5042474;28;20286;-88
2021/01/02 06:48:34;;;;;;;22.73;16.70;;;3.90;99.90;;;;;;5039752;28;20566;-88
2021/01/02 06:51:03;;;;;;;21.03;15.00;;;3.90;99.90;;;;;;5038284;28;20426;-86
2021/01/02 06:53:32;;;;;;;23.13;16.80;;;3.90;99.90;;;;;;5039492;28;20522;-87
2021/01/02 06:55:59;;;;;;;22.53;16.10;;;3.90;99.90;;;;;;5039786;28;20451;-87
2021/01/02 06:58:34;;;;;;;25.23;15.00;;;3.90;99.90;;;;;;5038794;28;20462;-87
2021/01/02 07:01:01;;;;;;;27.90;16.20;;;3.80;99.90;;;;;;5037277;28;20485;-87
2021/01/02 07:03:45;;;;;;;24.90;16.37;;;3.90;99.90;;;;;;5038472;28;20493;-87
2021/01/02 07:06:23;;;;;;;23.70;15.93;;;3.80;99.90;;;;;;5045020;28;20480;-88
2021/01/02 07:08:51;;;;;;;21.30;15.20;;;3.80;99.90;;;;;;5037619;28;20481;-87
2021/01/02 07:11:25;;;;;;;25.30;16.37;;;3.90;99.90;;;;;;5037755;28;20509;-86
2021/01/02 07:14:26;;;;;;;26.60;17.03;;;3.80;99.90;;;;;;5038068;28;20779;-87
2021/01/02 07:16:58;;;;;;;24.67;16.00;;;3.70;99.90;;;;;;5037150;28;20838;-87
2021/01/02 07:19:49;;;;;;;21.80;15.60;;;3.70;99.90;;;;;;5038175;28;20450;-87
2021/01/02 07:22:28;;;;;;;26.73;17.30;;;3.70;99.90;;;;;;5039786;28;20504;-86
2021/01/02 07:25:03;;;;;;;29.77;19.10;;;3.80;99.90;;;;;;5020869;28;20467;-86
2021/01/02 07:27:31;;;;;;;27.37;18.30;;;3.90;99.90;;;;;;5033437;28;20500;-87
2021/01/02 07:30:05;;;;;;;22.20;15.20;;;4.00;99.90;;;;;;5038830;28;20480;-87
2021/01/02 07:32:33;;;;;;;24.90;17.90;;;4.00;99.90;;;;;;5038262;28;20446;-87
2021/01/02 07:35:02;;;;;;;24.00;17.27;;;3.90;99.90;;;;;;5037731;28;20519;-87
2021/01/02 07:37:31;;;;;;;24.23;17.63;;;4.00;99.90;;;;;;5037638;28;20580;-87
2021/01/02 07:39:59;;;;;;;23.23;16.57;;;4.00;99.90;;;;;;5036842;28;20455;-87
2021/01/02 07:42:28;;;;;;;27.73;19.73;;;4.10;99.90;;;;;;5037906;28;20941;-87
2021/01/02 07:44:57;;;;;;;26.67;18.70;;;3.90;99.90;;;;;;5037452;28;20799;-87
2021/01/02 07:47:24;;;;;;;28.87;18.30;;;3.80;99.90;;;;;;5037376;28;20987;-87
2021/01/02 07:49:58;;;;;;;26.57;17.50;;;3.90;99.90;;;;;;5037125;28;20857;-87
2021/01/02 07:52:24;;;;;;;31.77;19.20;;;4.00;99.90;;;;;;5036945;28;20932;-86
2021/01/02 07:54:52;;;;;;;27.67;18.07;;;3.90;99.90;;;;;;5036210;28;20922;-87
2021/01/02 07:57:24;;;;;;;29.77;18.70;;;4.00;99.90;;;;;;5037512;28;21047;-88
2021/01/02 07:59:52;;;;;;;25.50;18.37;;;4.00;99.90;;;;;;5039664;28;20501;-86
2021/01/02 08:02:23;;;;;;;22.77;17.67;;;4.10;99.90;;;;;;5037061;28;20481;-87
2021/01/02 08:04:50;;;;;;;24.53;17.90;;;4.10;99.90;;;;;;5033773;28;20833;-88
2021/01/02 08:07:17;;;;;;;24.63;17.13;;;4.10;99.90;;;;;;5033942;28;20537;-87
2021/01/02 08:09:47;;;;;;;24.87;17.53;;;4.20;99.90;;;;;;5036058;28;20446;-88
2021/01/02 08:12:15;;;;;;;30.60;19.63;;;4.10;99.90;;;;;;5027512;28;20459;-88
2021/01/02 08:14:47;;;;;;;26.77;18.27;;;4.00;99.90;;;;;;5035897;28;20448;-87
2021/01/02 08:17:15;;;;;;;28.43;18.57;;;4.00;99.90;;;;;;5031186;28;20561;-87
2021/01/02 08:19:55;;;;;;;27.00;18.13;;;4.10;99.90;;;;;;5035839;28;20525;-86
2021/01/02 08:22:29;;;;;;;37.63;21.40;;;4.00;99.90;;;;;;5031333;28;20468;-86
2021/01/02 08:24:56;;;;;;;28.17;17.43;;;3.90;99.90;;;;;;5028266;28;20446;-87
2021/01/02 08:27:24;;;;;;;27.80;19.10;;;4.00;99.90;;;;;;5036527;28;20828;-87
2021/01/02 08:29:51;;;;;;;24.37;17.90;;;4.00;99.90;;;;;;5034679;28;20487;-87
2021/01/02 08:32:20;;;;;;;29.20;18.77;;;4.00;99.90;;;;;;5035799;28;20488;-85
2021/01/02 08:34:46;;;;;;;26.20;17.90;;;3.90;99.90;;;;;;5040864;28;20449;-89
2021/01/02 08:37:15;;;;;;;32.90;21.57;;;4.00;99.90;;;;;;5034273;28;20440;-87
2021/01/02 08:39:42;;;;;;;26.57;16.60;;;4.00;99.90;;;;;;5033487;28;20449;-87
2021/01/02 08:42:10;;;;;;;28.63;18.40;;;4.00;99.90;;;;;;5031797;28;20504;-88
2021/01/02 08:44:43;;;;;;;27.70;18.53;;;4.10;99.90;;;;;;5049665;28;20941;-86
2021/01/02 08:47:09;;;;;;;27.70;18.47;;;4.10;99.90;;;;;;5035985;28;20505;-86
2021/01/02 08:49:41;;;;;;;27.20;17.90;;;4.10;99.90;;;;;;5045261;28;20483;-88
2021/01/02 08:52:18;;;;;;;28.20;18.93;;;4.10;99.90;;;;;;5043749;28;20787;-86
2021/01/02 08:54:45;;;;;;;28.90;19.53;;;4.20;99.90;;;;;;5036200;28;20452;-87
2021/01/02 08:57:28;;;;;;;33.23;20.10;;;4.10;99.90;;;;;;5034882;28;20489;-88
2021/01/02 09:00:13;;;;;;;32.57;19.67;;;4.20;99.90;;;;;;5034823;28;20482;-88
2021/01/02 09:02:41;;;;;;;30.10;19.90;;;4.00;99.90;;;;;;5035461;28;20536;-87
2021/01/02 09:05:10;;;;;;;29.13;17.90;;;4.10;99.90;;;;;;5035510;28;20673;-87
2021/01/02 09:07:38;;;;;;;29.00;19.63;;;4.30;99.90;;;;;;5053330;28;20489;-88
2021/01/02 09:10:22;;;;;;;29.30;20.13;;;4.30;99.90;;;;;;5040028;28;20540;-87
2021/01/02 09:13:12;;;;;;;27.77;20.13;;;4.30;99.90;;;;;;5035012;28;20486;-88
2021/01/02 09:15:57;;;;;;;31.07;19.90;;;4.20;99.90;;;;;;5034889;28;20450;-87
2021/01/02 09:18:43;;;;;;;31.97;19.57;;;4.20;99.90;;;;;;5035081;28;20479;-87
2021/01/02 09:21:21;;;;;;;26.93;18.77;;;4.20;99.90;;;;;;5032604;28;20460;-87
2021/01/02 09:23:47;;;;;;;29.70;21.10;;;4.20;99.90;;;;;;5035078;28;20796;-89
2021/01/02 09:26:22;;;;;;;27.13;19.80;;;4.20;99.90;;;;;;5035340;28;20457;-88
2021/01/02 09:28:49;;;;;;;30.43;20.37;;;4.20;99.90;;;;;;5035119;28;20579;-88
2021/01/02 09:31:17;;;;;;;31.20;20.97;;;4.30;99.90;;;;;;5035454;28;20469;-87
2021/01/02 09:33:45;;;;;;;36.00;22.13;;;4.20;99.90;;;;;;5035510;28;20455;-87
2021/01/02 09:36:13;;;;;;;32.53;19.83;;;4.10;99.90;;;;;;5034987;28;20824;-86
2021/01/02 09:38:40;;;;;;;33.40;22.07;;;4.20;99.90;;;;;;5034752;28;20457;-86
2021/01/02 09:41:08;;;;;;;33.00;22.20;;;4.30;99.90;;;;;;5036519;28;20480;-89
2021/01/02 09:43:34;;;;;;;31.00;20.50;;;4.40;99.90;;;;;;5053698;28;20437;-88
2021/01/02 09:46:01;;;;;;;33.47;21.83;;;4.20;99.90;;;;;;5039519;28;20534;-88
2021/01/02 09:48:27;;;;;;;31.20;20.07;;;4.30;99.90;;;;;;5035711;28;20971;-89
2021/01/02 09:50:54;;;;;;;29.50;20.53;;;4.30;99.90;;;;;;5033894;28;20487;-89
2021/01/02 09:53:21;;;;;;;31.77;21.10;;;4.60;99.90;;;;;;5015310;28;20934;-89
2021/01/02 09:55:47;;;;;;;32.77;21.90;;;4.60;99.90;;;;;;5034006;28;20459;-90
2021/01/02 09:58:15;;;;;;;31.13;20.30;;;4.50;99.90;;;;;;5035458;28;20923;-88
2021/01/02 10:00:41;;;;;;;28.67;20.13;;;4.60;99.90;;;;;;5033484;28;20565;-86
2021/01/02 10:03:09;;;;;;;33.00;21.47;;;4.70;99.90;;;;;;5036105;28;20796;-89
2021/01/02 10:05:36;;;;;;;34.00;22.10;;;4.60;99.90;;;;;;5038496;28;20459;-88
2021/01/02 10:08:03;;;;;;;36.13;21.23;;;4.70;99.90;;;;;;5034384;28;21025;-90
2021/01/02 10:10:30;;;;;;;34.20;22.17;;;4.60;99.90;;;;;;5024918;28;20508;-90
2021/01/02 10:12:57;;;;;;;31.17;19.90;;;4.50;99.90;;;;;;5029443;28;20947;-91
2021/01/02 10:15:24;;;;;;;34.37;21.47;;;4.60;99.90;;;;;;5033759;28;20517;-90
2021/01/02 10:17:53;;;;;;;34.27;21.30;;;4.70;99.90;;;;;;5038101;28;20482;-95
2021/01/02 10:20:23;;;;;;;33.90;23.03;;;4.80;99.90;;;;;;5040256;28;20463;-90
2021/01/02 10:22:52;;;;;;;36.23;23.03;;;4.80;99.90;;;;;;5035103;28;20449;-90
2021/01/02 10:25:19;;;;;;;33.87;21.50;;;4.70;99.90;;;;;;5037600;28;20456;-91
2021/01/02 10:27:46;;;;;;;28.90;19.57;;;4.80;99.90;;;;;;5036880;28;20475;-90
2021/01/02 10:30:14;;;;;;;31.70;20.47;;;5.00;99.90;;;;;;5036638;28;20550;-87
2021/01/02 10:32:42;;;;;;;31.70;19.50;;;5.20;99.90;;;;;;5034913;28;20852;-88
2021/01/02 10:35:14;;;;;;;38.60;21.87;;;5.10;99.90;;;;;;5034268;28;20465;-87
2021/01/02 10:37:40;;;;;;;35.80;23.23;;;4.90;99.90;;;;;;5035647;28;20497;-90
2021/01/02 10:40:08;;;;;;;31.47;18.90;;;4.90;99.90;;;;;;5034796;28;20980;-89
2021/01/02 10:42:35;;;;;;;33.03;19.77;;;5.00;99.90;;;;;;5034609;28;20923;-88
2021/01/02 10:45:04;;;;;;;31.93;20.70;;;5.10;99.90;;;;;;5024081;28;20450;-90
2021/01/02 10:47:31;;;;;;;32.40;21.30;;;5.10;99.90;;;;;;5015320;28;20485;-88
2021/01/02 10:49:58;;;;;;;30.47;20.33;;;5.10;99.90;;;;;;5016766;28;21005;-90
2021/01/02 10:52:26;;;;;;;35.40;21.93;;;5.20;99.90;;;;;;5033683;28;20496;-90
2021/01/02 10:54:55;;;;;;;33.73;21.77;;;4.90;99.90;;;;;;5033354;28;20454;-90
2021/01/02 10:57:25;;;;;;;29.10;20.40;;;4.80;99.90;;;;;;5034982;28;20456;-90
2021/01/02 10:59:52;;;;;;;29.17;19.70;;;5.00;99.90;;;;;;5036040;28;20459;-90
2021/01/02 11:02:21;;;;;;;34.60;21.63;;;5.10;99.90;;;;;;5030009;28;20460;-89
2021/01/02 11:04:48;;;;;;;31.83;20.17;;;5.10;99.90;;;;;;5035708;28;20542;-88
2021/01/02 11:07:16;;;;;;;36.20;23.60;;;5.30;99.90;;;;;;5033642;28;20448;-88
2021/01/02 11:09:44;;;;;;;30.63;20.63;;;5.20;99.90;;;;;;5034965;28;20484;-87
2021/01/02 11:12:11;;;;;;;32.00;19.33;;;5.40;99.90;;;;;;5032823;28;20458;-86
2021/01/02 11:14:41;;;;;;;172.27;71.07;;;5.60;99.90;;;;;;5035396;28;20506;-86
2021/01/02 11:17:08;;;;;;;34.57;22.73;;;5.70;99.90;;;;;;5034758;28;20535;-88
2021/01/02 11:19:34;;;;;;;32.67;21.17;;;5.90;99.90;;;;;;5034718;28;20940;-89
2021/01/02 11:22:02;;;;;;;27.00;17.93;;;5.80;99.90;;;;;;5033838;28;20534;-88
2021/01/02 11:24:32;;;;;;;29.47;19.63;;;5.90;99.90;;;;;;5033912;28;20544;-89
2021/01/02 11:27:00;;;;;;;33.30;22.23;;;5.70;99.90;;;;;;5035271;28;20461;-89
2021/01/02 11:29:30;;;;;;;27.90;17.97;;;5.50;99.90;;;;;;5037795;28;21241;-89
2021/01/02 11:31:57;;;;;;;28.00;19.30;;;5.80;99.90;;;;;;5039567;28;20463;-90
2021/01/02 11:34:25;;;;;;;29.47;19.03;;;5.90;99.90;;;;;;5037824;28;20484;-89
2021/01/02 11:36:53;;;;;;;27.23;19.47;;;6.00;99.90;;;;;;5037793;28;21007;-89
2021/01/02 11:39:20;;;;;;;27.50;18.37;;;6.00;99.90;;;;;;5038562;28;20939;-89
2021/01/02 11:41:48;;;;;;;24.50;17.73;;;6.10;99.90;;;;;;5038209;28;20448;-89
2021/01/02 11:44:17;;;;;;;28.00;19.63;;;6.20;99.90;;;;;;5038036;28;20485;-89
2021/01/02 11:46:46;;;;;;;27.83;18.13;;;6.40;99.90;;;;;;5038210;28;20480;-88
2021/01/02 11:49:14;;;;;;;24.87;16.57;;;6.30;99.90;;;;;;5038164;28;20537;-89
2021/01/02 11:51:41;;;;;;;27.10;16.40;;;6.50;99.90;;;;;;5039584;28;20455;-88
2021/01/02 11:54:08;;;;;;;23.27;16.03;;;6.40;99.90;;;;;;5037437;28;20456;-89
2021/01/02 11:56:35;;;;;;;26.63;19.93;;;6.40;99.90;;;;;;5037832;28;20488;-88
2021/01/02 11:59:02;;;;;;;25.40;16.40;;;6.60;99.90;;;;;;5045614;28;20497;-89
2021/01/02 12:01:37;;;;;;;28.00;17.03;;;6.50;99.90;;;;;;5042455;28;20465;-89
2021/01/02 12:04:05;;;;;;;26.40;17.20;;;6.60;99.90;;;;;;5037334;28;20487;-89
2021/01/02 12:06:32;;;;;;;22.57;16.77;;;6.70;99.90;;;;;;5037384;28;20454;-88
2021/01/02 12:08:59;;;;;;;23.87;15.37;;;6.90;99.90;;;;;;5036982;28;20488;-91
2021/01/02 12:11:30;;;;;;;22.73;16.63;;;6.80;99.90;;;;;;5037035;28;20461;-89
2021/01/02 12:13:56;;;;;;;22.70;15.03;;;6.60;99.90;;;;;;5036822;28;20541;-91
2021/01/02 12:16:31;;;;;;;19.47;14.40;;;6.50;99.90;;;;;;5035987;28;20456;-89
2021/01/02 12:18:58;;;;;;;26.97;16.43;;;6.60;99.90;;;;;;5036321;28;20443;-91
2021/01/02 12:21:24;;;;;;;26.57;16.43;;;6.20;99.90;;;;;;5024638;28;20454;-89
2021/01/02 12:23:50;;;;;;;21.00;14.60;;;5.90;99.90;;;;;;5033536;28;20510;-88
2021/01/02 12:26:17;;;;;;;20.07;14.47;;;6.10;99.90;;;;;;5024597;28;20971;-89
2021/01/02 12:28:47;;;;;;;22.00;14.67;;;6.30;99.90;;;;;;5036229;28;20559;-89
2021/01/02 12:31:16;;;;;;;20.07;14.10;;;6.30;99.90;;;;;;5033242;28;20853;-89
2021/01/02 12:33:45;;;;;;;19.97;12.83;;;6.30;99.90;;;;;;5031521;28;20528;-88
2021/01/02 12:36:11;;;;;;;25.53;14.30;;;6.10;99.90;;;;;;5033848;28;20472;-89
2021/01/02 12:38:38;;;;;;;21.00;14.10;;;6.00;99.90;;;;;;5035566;28;20563;-89
2021/01/02 12:41:05;;;;;;;19.30;13.77;;;5.90;99.90;;;;;;5032022;28;20476;-89
2021/01/02 12:43:32;;;;;;;20.80;14.23;;;6.00;99.90;;;;;;5033686;28;20515;-88
2021/01/02 12:45:59;;;;;;;18.33;12.70;;;6.10;99.90;;;;;;5027839;28;20602;-93
2021/01/02 12:48:25;;;;;;;21.93;13.60;;;6.00;99.90;;;;;;5028601;28;20962;-88
2021/01/02 12:50:54;;;;;;;19.40;14.00;;;6.00;99.90;;;;;;5035026;28;20976;-88
2021/01/02 12:53:20;;;;;;;22.70;15.00;;;5.90;99.90;;;;;;5027907;28;20633;-88
2021/01/02 12:55:47;;;;;;;21.67;15.03;;;6.10;99.90;;;;;;5030897;28;20541;-88